createdAt,value
2023-03-22T00:00:44.524Z,93.09
2023-03-22T00:01:44.448Z,92.84
2023-03-22T00:02:44.564Z,92.84
2023-03-22T00:03:44.501Z,92.74
2023-03-22T00:04:44.612Z,93.05
2023-03-22T00:05:44.435Z,93.40
2023-03-22T00:06:44.460Z,92.88
2023-03-22T00:07:44.466Z,92.99
2023-03-22T00:08:44.395Z,93.19
2023-03-22T00:09:44.451Z,93.71
2023-03-22T00:10:44.390Z,94.43
2023-03-22T00:11:44.518Z,94.64
2023-03-22T00:12:44.387Z,95.15
2023-03-22T00:13:44.385Z,95.36
2023-03-22T00:14:44.416Z,95.93
2023-03-22T00:15:44.390Z,95.62
2023-03-22T00:16:44.370Z,95.73
2023-03-22T00:17:44.360Z,95.93
2023-03-22T00:18:44.388Z,95.62
2023-03-22T00:19:44.330Z,95.83
2023-03-22T00:20:44.333Z,95.93
2023-03-22T00:21:44.315Z,95.89
2023-03-22T00:22:44.298Z,95.48
2023-03-22T00:23:44.323Z,95.21
2023-03-22T00:24:44.265Z,94.18
2023-03-22T00:25:45.060Z,93.66
2023-03-22T00:26:44.236Z,93.25
2023-03-22T00:27:44.271Z,92.84
2023-03-22T00:28:44.212Z,92.94
2023-03-22T00:29:44.252Z,92.94
2023-03-22T00:30:44.213Z,93.05
2023-03-22T00:31:44.201Z,93.05
2023-03-22T00:32:44.225Z,92.94
2023-03-22T00:33:44.231Z,93.15
2023-03-22T00:34:44.253Z,93.19
2023-03-22T00:35:44.165Z,92.68
2023-03-22T00:36:44.164Z,92.68
2023-03-22T00:37:44.177Z,93.19
2023-03-22T00:38:44.726Z,92.99
2023-03-22T00:39:45.140Z,93.24
2023-03-22T00:40:44.139Z,93.13
2023-03-22T00:41:44.128Z,92.82
2023-03-22T00:42:44.133Z,92.82
2023-03-22T00:43:44.093Z,92.82
2023-03-22T00:44:44.064Z,92.72
2023-03-22T00:45:44.132Z,92.82
2023-03-22T00:46:44.095Z,92.82
2023-03-22T00:47:44.108Z,92.93
2023-03-22T00:48:44.083Z,93.18
2023-03-22T00:49:44.014Z,93.18
2023-03-22T00:50:44.034Z,92.76
2023-03-22T00:51:44.004Z,93.07
2023-03-22T00:52:43.972Z,93.18
2023-03-22T00:53:44.081Z,93.34
2023-03-22T00:54:44.005Z,93.24
2023-03-22T00:55:43.982Z,93.44
2023-03-22T00:56:43.946Z,93.75
2023-03-22T00:57:43.939Z,94.06
2023-03-22T00:58:43.929Z,93.75
2023-03-22T00:59:43.971Z,93.96
2023-03-22T01:00:44.049Z,93.96
2023-03-22T01:01:43.909Z,93.96
2023-03-22T01:02:43.956Z,93.85
2023-03-22T01:03:44.036Z,93.96
2023-03-22T01:04:43.913Z,93.65
2023-03-22T01:05:43.922Z,93.75
2023-03-22T01:06:43.914Z,93.75
2023-03-22T01:07:43.942Z,93.96
2023-03-22T01:08:43.872Z,93.75
2023-03-22T01:09:43.842Z,93.65
2023-03-22T01:10:43.920Z,93.65
2023-03-22T01:11:43.820Z,93.54
2023-03-22T01:12:43.816Z,94.06
2023-03-22T01:13:43.821Z,93.85
2023-03-22T01:14:43.845Z,93.85
2023-03-22T01:15:43.763Z,93.96
2023-03-22T01:16:43.824Z,93.96
2023-03-22T01:17:43.766Z,93.75
2023-03-22T01:18:43.741Z,93.75
2023-03-22T01:19:43.739Z,93.75
2023-03-22T01:20:43.688Z,93.85
2023-03-22T01:21:43.740Z,93.59
2023-03-22T01:22:43.706Z,93.49
2023-03-22T01:23:43.698Z,93.38
2023-03-22T01:24:43.694Z,93.59
2023-03-22T01:25:43.715Z,94.15
2023-03-22T01:26:43.698Z,94.00
2023-03-22T01:27:43.685Z,94.10
2023-03-22T01:28:43.671Z,94.42
2023-03-22T01:29:43.623Z,94.52
2023-03-22T01:30:43.701Z,94.72
2023-03-22T01:31:43.621Z,94.31
2023-03-22T01:32:43.587Z,94.21
2023-03-22T01:33:43.582Z,94.62
2023-03-22T01:34:43.594Z,94.47
2023-03-22T01:35:43.657Z,94.47
2023-03-22T01:36:43.571Z,94.57
2023-03-22T01:37:43.607Z,94.27
2023-03-22T01:38:43.506Z,94.17
2023-03-22T01:39:43.544Z,93.79
2023-03-22T01:40:43.539Z,94.10
2023-03-22T01:41:43.538Z,94.00
2023-03-22T01:42:44.055Z,93.69
2023-03-22T01:43:43.514Z,93.79
2023-03-22T01:44:43.488Z,94.00
2023-03-22T01:45:43.512Z,94.00
2023-03-22T01:46:43.460Z,93.73
2023-03-22T01:47:43.509Z,93.28
2023-03-22T01:48:43.464Z,93.94
2023-03-22T01:49:44.070Z,93.26
2023-03-22T01:50:43.498Z,93.88
2023-03-22T01:51:43.941Z,93.68
2023-03-22T01:52:44.395Z,94.13
2023-03-22T01:53:43.383Z,94.65
2023-03-22T01:54:43.400Z,95.37
2023-03-22T01:55:43.409Z,95.57
2023-03-22T01:56:43.425Z,95.99
2023-03-22T01:57:43.360Z,96.05
2023-03-22T01:58:43.358Z,95.74
2023-03-22T01:59:43.351Z,96.36
2023-03-22T02:00:43.335Z,96.36
2023-03-22T02:01:43.399Z,96.05
2023-03-22T02:02:43.319Z,96.36
2023-03-22T02:03:44.120Z,96.15
2023-03-22T02:04:43.267Z,95.95
2023-03-22T02:05:43.388Z,96.15
2023-03-22T02:06:44.286Z,95.74
2023-03-22T02:07:43.276Z,95.74
2023-03-22T02:08:43.280Z,95.84
2023-03-22T02:09:43.250Z,95.53
2023-03-22T02:10:43.348Z,95.32
2023-03-22T02:11:43.241Z,95.28
2023-03-22T02:12:43.211Z,95.53
2023-03-22T02:13:43.209Z,95.39
2023-03-22T02:14:43.176Z,95.49
2023-03-22T02:15:43.230Z,95.12
2023-03-22T02:16:43.168Z,94.81
2023-03-22T02:17:44.063Z,94.71
2023-03-22T02:18:43.202Z,94.71
2023-03-22T02:19:43.180Z,94.71
2023-03-22T02:20:43.176Z,94.71
2023-03-22T02:21:43.133Z,95.02
2023-03-22T02:22:43.098Z,95.74
2023-03-22T02:23:43.113Z,95.32
2023-03-22T02:24:43.995Z,95.53
2023-03-22T02:25:44.103Z,94.77
2023-03-22T02:26:43.197Z,94.87
2023-03-22T02:27:43.042Z,94.77
2023-03-22T02:28:43.065Z,94.67
2023-03-22T02:29:43.087Z,94.67
2023-03-22T02:30:43.049Z,94.50
2023-03-22T02:31:43.059Z,94.71
2023-03-22T02:32:43.014Z,94.25
2023-03-22T02:33:43.240Z,94.46
2023-03-22T02:34:42.989Z,94.40
2023-03-22T02:35:43.044Z,94.60
2023-03-22T02:36:42.957Z,95.39
2023-03-22T02:37:42.986Z,95.49
2023-03-22T02:38:42.976Z,95.39
2023-03-22T02:39:42.937Z,94.60
2023-03-22T02:40:43.136Z,94.71
2023-03-22T02:41:42.930Z,94.40
2023-03-22T02:42:42.893Z,94.29
2023-03-22T02:43:42.915Z,94.13
2023-03-22T02:44:42.933Z,93.93
2023-03-22T02:45:42.979Z,93.51
2023-03-22T02:46:42.956Z,94.03
2023-03-22T02:47:42.960Z,93.62
2023-03-22T02:48:42.836Z,93.97
2023-03-22T02:49:42.840Z,93.97
2023-03-22T02:50:42.846Z,94.59
2023-03-22T02:51:42.822Z,95.62
2023-03-22T02:52:42.869Z,96.09
2023-03-22T02:53:42.809Z,96.26
2023-03-22T02:54:44.586Z,96.47
2023-03-22T02:55:43.814Z,96.56
2023-03-22T02:56:42.798Z,97.19
2023-03-22T02:57:42.787Z,97.04
2023-03-22T02:58:42.779Z,97.04
2023-03-22T02:59:42.713Z,97.25
2023-03-22T03:00:43.011Z,97.41
2023-03-22T03:01:42.811Z,97.30
2023-03-22T03:02:42.690Z,97.51
2023-03-22T03:03:42.702Z,97.61
2023-03-22T03:04:42.711Z,97.51
2023-03-22T03:05:42.711Z,97.56
2023-03-22T03:06:42.648Z,97.82
2023-03-22T03:07:42.668Z,97.67
2023-03-22T03:08:42.693Z,97.67
2023-03-22T03:09:42.650Z,97.26
2023-03-22T03:10:42.656Z,96.99
2023-03-22T03:11:42.622Z,96.58
2023-03-22T03:12:42.640Z,96.06
2023-03-22T03:13:42.589Z,95.55
2023-03-22T03:14:42.595Z,95.49
2023-03-22T03:15:42.609Z,95.34
2023-03-22T03:16:42.600Z,94.46
2023-03-22T03:17:42.558Z,94.77
2023-03-22T03:18:42.589Z,94.56
2023-03-22T03:19:42.587Z,94.67
2023-03-22T03:20:42.582Z,94.67
2023-03-22T03:21:42.523Z,94.97
2023-03-22T03:22:42.514Z,95.49
2023-03-22T03:23:42.515Z,95.39
2023-03-22T03:24:42.508Z,95.28
2023-03-22T03:25:42.545Z,95.70
2023-03-22T03:26:42.477Z,95.39
2023-03-22T03:27:42.494Z,96.48
2023-03-22T03:28:42.441Z,96.99
2023-03-22T03:29:42.444Z,97.20
2023-03-22T03:30:42.450Z,97.47
2023-03-22T03:31:42.563Z,97.56
2023-03-22T03:32:42.438Z,97.56
2023-03-22T03:33:42.381Z,97.67
2023-03-22T03:34:42.374Z,97.26
2023-03-22T03:35:42.428Z,97.26
2023-03-22T03:36:42.922Z,96.59
2023-03-22T03:37:42.353Z,96.91
2023-03-22T03:38:42.364Z,96.70
2023-03-22T03:39:42.333Z,96.59
2023-03-22T03:40:42.354Z,96.70
2023-03-22T03:41:42.359Z,96.49
2023-03-22T03:42:42.323Z,96.49
2023-03-22T03:43:42.408Z,96.18
2023-03-22T03:44:42.245Z,96.39
2023-03-22T03:45:42.379Z,95.87
2023-03-22T03:46:42.265Z,95.67
2023-03-22T03:47:42.308Z,96.08
2023-03-22T03:48:42.272Z,95.56
2023-03-22T03:49:42.265Z,95.46
2023-03-22T03:50:42.447Z,95.25
2023-03-22T03:51:42.212Z,96.08
2023-03-22T03:52:43.273Z,96.08
2023-03-22T03:53:43.230Z,96.28
2023-03-22T03:54:42.176Z,96.18
2023-03-22T03:55:42.230Z,95.77
2023-03-22T03:56:42.172Z,95.98
2023-03-22T03:57:42.179Z,96.39
2023-03-22T03:58:42.171Z,96.08
2023-03-22T03:59:42.182Z,96.18
2023-03-22T04:00:42.268Z,96.28
2023-03-22T04:01:42.123Z,96.39
2023-03-22T04:02:42.194Z,96.44
2023-03-22T04:03:42.129Z,96.80
2023-03-22T04:04:42.185Z,96.44
2023-03-22T04:05:42.093Z,96.53
2023-03-22T04:06:42.072Z,96.53
2023-03-22T04:07:42.109Z,96.44
2023-03-22T04:08:42.049Z,96.53
2023-03-22T04:09:42.140Z,96.58
2023-03-22T04:10:42.081Z,96.48
2023-03-22T04:11:42.026Z,95.92
2023-03-22T04:12:42.035Z,96.64
2023-03-22T04:13:42.026Z,96.33
2023-03-22T04:14:42.119Z,96.44
2023-03-22T04:15:41.991Z,96.74
2023-03-22T04:16:42.054Z,96.84
2023-03-22T04:17:42.014Z,97.16
2023-03-22T04:18:41.979Z,96.95
2023-03-22T04:19:41.972Z,97.05
2023-03-22T04:20:42.165Z,96.95
2023-03-22T04:21:41.982Z,96.95
2023-03-22T04:22:41.894Z,97.05
2023-03-22T04:23:41.928Z,97.16
2023-03-22T04:24:41.899Z,96.84
2023-03-22T04:25:41.951Z,97.16
2023-03-22T04:26:41.886Z,97.05
2023-03-22T04:27:41.861Z,96.95
2023-03-22T04:28:42.060Z,97.26
2023-03-22T04:29:41.864Z,97.16
2023-03-22T04:30:42.288Z,96.84
2023-03-22T04:31:41.835Z,97.11
2023-03-22T04:32:41.850Z,97.05
2023-03-22T04:33:41.803Z,97.16
2023-03-22T04:34:41.804Z,97.56
2023-03-22T04:35:42.669Z,97.77
2023-03-22T04:36:41.829Z,97.56
2023-03-22T04:37:41.826Z,97.88
2023-03-22T04:38:41.813Z,97.36
2023-03-22T04:39:41.766Z,97.94
2023-03-22T04:40:42.216Z,98.29
2023-03-22T04:41:41.760Z,97.88
2023-03-22T04:42:41.848Z,97.77
2023-03-22T04:43:41.691Z,98.23
2023-03-22T04:44:41.770Z,97.88
2023-03-22T04:45:41.827Z,97.98
2023-03-22T04:46:41.729Z,98.02
2023-03-22T04:47:41.743Z,97.88
2023-03-22T04:48:41.705Z,97.98
2023-03-22T04:49:41.706Z,98.29
2023-03-22T04:50:42.018Z,98.23
2023-03-22T04:51:41.703Z,98.39
2023-03-22T04:52:41.652Z,98.29
2023-03-22T04:53:41.651Z,98.08
2023-03-22T04:54:41.626Z,98.23
2023-03-22T04:55:41.642Z,98.44
2023-03-22T04:56:41.621Z,98.50
2023-03-22T04:57:41.611Z,98.39
2023-03-22T04:58:41.581Z,98.50
2023-03-22T04:59:41.584Z,98.29
2023-03-22T05:00:41.883Z,98.39
2023-03-22T05:01:41.622Z,98.39
2023-03-22T05:02:41.800Z,98.39
2023-03-22T05:03:41.513Z,98.08
2023-03-22T05:04:41.488Z,98.13
2023-03-22T05:05:41.492Z,98.39
2023-03-22T05:06:41.529Z,98.29
2023-03-22T05:07:41.502Z,98.29
2023-03-22T05:08:41.469Z,98.39
2023-03-22T05:09:41.448Z,98.44
2023-03-22T05:10:41.961Z,98.23
2023-03-22T05:11:41.484Z,98.19
2023-03-22T05:12:41.427Z,98.23
2023-03-22T05:13:41.427Z,98.13
2023-03-22T05:14:41.470Z,98.65
2023-03-22T05:15:41.452Z,98.50
2023-03-22T05:16:41.451Z,98.50
2023-03-22T05:17:41.431Z,98.65
2023-03-22T05:18:41.363Z,98.23
2023-03-22T05:19:41.394Z,98.39
2023-03-22T05:20:41.556Z,98.19
2023-03-22T05:21:41.400Z,98.08
2023-03-22T05:22:41.476Z,98.13
2023-03-22T05:23:41.318Z,98.29
2023-03-22T05:24:41.304Z,97.82
2023-03-22T05:25:41.272Z,97.92
2023-03-22T05:26:41.325Z,97.56
2023-03-22T05:27:41.289Z,97.98
2023-03-22T05:28:41.271Z,97.92
2023-03-22T05:29:41.290Z,98.08
2023-03-22T05:30:41.579Z,97.88
2023-03-22T05:31:41.307Z,98.39
2023-03-22T05:32:41.276Z,98.19
2023-03-22T05:33:41.249Z,98.29
2023-03-22T05:34:41.236Z,98.29
2023-03-22T05:35:41.244Z,98.08
2023-03-22T05:36:41.567Z,98.19
2023-03-22T05:37:41.240Z,98.50
2023-03-22T05:38:41.209Z,98.66
2023-03-22T05:39:41.169Z,98.60
2023-03-22T05:40:41.497Z,98.55
2023-03-22T05:41:41.154Z,98.55
2023-03-22T05:42:41.134Z,98.35
2023-03-22T05:43:41.209Z,98.45
2023-03-22T05:44:41.103Z,98.45
2023-03-22T05:45:41.193Z,98.24
2023-03-22T05:46:41.205Z,98.14
2023-03-22T05:47:41.116Z,98.35
2023-03-22T05:48:41.103Z,97.89
2023-03-22T05:49:41.071Z,97.99
2023-03-22T05:50:42.059Z,97.48
2023-03-22T05:51:41.090Z,97.89
2023-03-22T05:52:41.123Z,97.99
2023-03-22T05:53:41.066Z,97.68
2023-03-22T05:54:41.071Z,97.99
2023-03-22T05:55:41.030Z,98.03
2023-03-22T05:56:41.034Z,97.78
2023-03-22T05:57:41.542Z,97.99
2023-03-22T05:58:41.005Z,97.78
2023-03-22T05:59:40.945Z,97.68
2023-03-22T06:00:41.293Z,97.89
2023-03-22T06:01:41.006Z,97.68
2023-03-22T06:02:41.013Z,97.58
2023-03-22T06:03:40.952Z,97.89
2023-03-22T06:04:40.955Z,97.58
2023-03-22T06:05:40.900Z,97.06
2023-03-22T06:06:41.134Z,96.96
2023-03-22T06:07:40.873Z,96.66
2023-03-22T06:08:40.903Z,97.27
2023-03-22T06:09:40.868Z,97.17
2023-03-22T06:10:41.112Z,97.17
2023-03-22T06:11:40.858Z,97.17
2023-03-22T06:12:40.834Z,97.48
2023-03-22T06:13:40.834Z,97.78
2023-03-22T06:14:41.846Z,97.78
2023-03-22T06:15:40.932Z,97.99
2023-03-22T06:16:40.848Z,97.89
2023-03-22T06:17:40.805Z,97.58
2023-03-22T06:18:40.782Z,97.99
2023-03-22T06:32:36.001Z,97.85
2023-03-22T06:33:36.000Z,97.64
2023-03-22T06:34:36.078Z,97.74
2023-03-22T06:35:36.070Z,97.85
2023-03-22T06:36:35.983Z,97.64
2023-03-22T06:37:35.959Z,97.39
2023-03-22T06:38:35.951Z,97.18
2023-03-22T06:39:37.244Z,97.34
2023-03-22T06:40:37.296Z,97.03
2023-03-22T06:41:37.160Z,96.83
2023-03-22T06:42:37.172Z,96.83
2023-03-22T06:43:37.194Z,96.72
2023-03-22T06:44:37.207Z,96.72
2023-03-22T06:45:37.039Z,96.42
2023-03-22T06:46:37.014Z,96.27
2023-03-22T06:47:37.027Z,96.06
2023-03-22T06:48:37.022Z,95.55
2023-03-22T06:49:37.018Z,95.45
2023-03-22T06:50:37.202Z,95.75
2023-03-22T06:51:36.965Z,95.71
2023-03-22T06:52:37.045Z,95.75
2023-03-22T06:53:38.017Z,95.65
2023-03-22T06:54:36.985Z,95.20
2023-03-22T06:55:36.928Z,95.20
2023-03-22T06:56:36.950Z,95.30
2023-03-22T06:57:36.909Z,94.99
2023-03-22T06:58:36.919Z,95.09
2023-03-22T06:59:37.020Z,94.89
2023-03-22T07:00:36.942Z,94.78
2023-03-22T07:01:36.962Z,94.78
2023-03-22T07:02:36.857Z,94.27
2023-03-22T07:03:36.843Z,94.37
2023-03-22T07:04:36.858Z,94.17
2023-03-22T07:05:36.839Z,94.27
2023-03-22T07:06:36.829Z,94.17
2023-03-22T07:07:36.921Z,94.02
2023-03-22T07:08:36.824Z,93.92
2023-03-22T07:09:36.856Z,93.51
2023-03-22T07:10:36.836Z,93.36
2023-03-22T07:11:36.809Z,93.87
2023-03-22T07:12:36.755Z,93.61
2023-03-22T07:13:36.749Z,93.05
2023-03-22T07:14:36.869Z,93.05
2023-03-22T07:15:36.769Z,93.01
2023-03-22T07:16:36.877Z,92.95
2023-03-22T07:17:36.734Z,92.60
2023-03-22T07:18:36.772Z,92.70
2023-03-22T07:19:36.844Z,92.60
2023-03-22T07:20:40.768Z,92.60
2023-03-22T07:21:36.770Z,92.25
2023-03-22T07:22:36.684Z,92.55
2023-03-22T07:23:36.720Z,92.14
2023-03-22T07:24:44.623Z,92.55
2023-03-22T07:25:38.908Z,91.33
2023-03-22T07:26:36.866Z,91.33
2023-03-22T07:27:36.950Z,91.38
2023-03-22T07:28:36.877Z,90.77
2023-03-22T07:29:36.638Z,91.08
2023-03-22T07:30:36.586Z,91.49
2023-03-22T07:31:36.620Z,91.14
2023-03-22T07:32:36.841Z,91.35
2023-03-22T07:33:37.630Z,91.03
2023-03-22T07:34:36.778Z,91.18
2023-03-22T07:35:36.533Z,90.52
2023-03-22T07:36:36.516Z,91.14
2023-03-22T07:37:36.551Z,91.44
2023-03-22T07:38:36.532Z,91.24
2023-03-22T07:41:53.116Z,91.35
2023-03-22T07:42:54.837Z,91.44
2023-03-22T07:43:58.412Z,90.52
2023-03-22T07:44:54.294Z,91.35
2023-03-22T07:45:54.279Z,91.24
2023-03-22T07:49:11.479Z,91.44
2023-03-22T07:50:11.701Z,91.24
2023-03-22T07:51:11.346Z,91.14
2023-03-22T07:52:11.452Z,91.03
2023-03-22T07:53:11.393Z,91.14
2023-03-22T07:56:30.208Z,90.83
2023-03-22T07:57:30.303Z,91.14
2023-03-22T08:00:21.286Z,91.86
2023-03-22T08:01:21.289Z,90.62
2023-03-22T08:02:21.485Z,90.01
2023-03-22T08:03:21.351Z,91.03
2023-03-22T08:04:21.390Z,90.42
2023-03-22T08:05:21.338Z,90.73
2023-03-22T08:06:21.210Z,89.50
2023-03-22T08:07:21.174Z,89.45
2023-03-22T08:08:21.165Z,89.60
2023-03-22T08:09:21.225Z,88.74
2023-03-22T08:10:21.450Z,89.15
2023-03-22T08:11:21.124Z,88.64
2023-03-22T08:12:21.176Z,88.53
2023-03-22T08:13:21.149Z,89.31
2023-03-22T08:14:30.766Z,88.39
2023-03-22T08:15:24.359Z,87.57
2023-03-22T08:16:22.492Z,88.35
2023-03-22T08:17:22.346Z,87.02
2023-03-22T08:18:22.233Z,87.02
2023-03-22T08:19:22.232Z,87.12
2023-03-22T08:20:22.368Z,87.90
2023-03-22T08:21:22.250Z,87.85
2023-03-22T08:22:22.263Z,86.94
2023-03-22T08:23:28.901Z,86.73
2023-03-22T08:24:24.258Z,86.83
2023-03-22T08:25:22.310Z,86.12
2023-03-22T08:26:22.452Z,86.22
2023-03-22T08:27:22.179Z,85.75
2023-03-22T08:28:22.182Z,87.29
2023-03-22T08:29:22.145Z,87.24
2023-03-22T08:30:22.157Z,87.70
2023-03-22T08:31:22.135Z,87.55
2023-03-22T08:32:22.174Z,87.35
2023-03-22T08:33:22.215Z,85.30
2023-03-22T08:34:22.194Z,85.85
2023-03-22T08:35:22.110Z,85.55
2023-03-22T08:36:22.069Z,86.36
2023-03-22T08:37:22.199Z,86.98
2023-03-22T08:38:22.068Z,87.08
2023-03-22T08:39:22.043Z,87.70
2023-03-22T08:40:22.040Z,87.04
2023-03-22T08:41:22.143Z,86.88
2023-03-22T08:42:22.033Z,86.83
2023-03-22T08:43:22.073Z,87.04
2023-03-22T08:44:22.063Z,86.77
2023-03-22T08:45:22.037Z,86.63
2023-03-22T08:46:21.975Z,86.94
2023-03-22T08:47:21.976Z,87.35
2023-03-22T08:48:21.984Z,86.83
2023-03-22T08:49:21.996Z,86.94
2023-03-22T08:50:21.978Z,86.12
2023-03-22T08:51:21.907Z,86.49
2023-03-22T08:52:22.049Z,86.29
2023-03-22T08:53:21.961Z,85.83
2023-03-22T08:54:21.911Z,86.00
2023-03-22T08:55:21.922Z,86.20
2023-03-22T08:56:21.903Z,86.67
2023-03-22T08:57:22.033Z,85.14
2023-03-22T08:58:22.001Z,85.55
2023-03-22T08:59:21.879Z,85.04
2023-03-22T09:00:21.878Z,83.75
2023-03-22T09:01:22.047Z,83.75
2023-03-22T09:02:22.003Z,84.67
2023-03-22T09:03:21.882Z,84.67
2023-03-22T09:04:22.882Z,84.57
2023-03-22T09:05:21.806Z,84.47
2023-03-22T09:06:21.796Z,84.06
2023-03-22T09:07:21.818Z,83.54
2023-03-22T09:08:21.826Z,84.26
2023-03-22T09:09:22.010Z,83.75
2023-03-22T09:10:21.718Z,83.65
2023-03-22T09:11:21.746Z,83.34
2023-03-22T09:12:21.725Z,83.44
2023-03-22T09:13:21.748Z,83.14
2023-03-22T09:14:21.750Z,83.24
2023-03-22T09:15:21.718Z,82.56
2023-03-22T09:16:21.781Z,83.54
2023-03-22T09:17:22.595Z,83.34
2023-03-22T09:18:22.658Z,82.87
2023-03-22T09:19:21.908Z,83.75
2023-03-22T09:20:21.717Z,83.24
2023-03-22T09:21:21.721Z,84.98
2023-03-22T09:22:21.653Z,84.77
2023-03-22T09:23:21.743Z,83.30
2023-03-22T09:24:21.706Z,82.28
2023-03-22T09:25:21.688Z,81.77
2023-03-22T09:26:21.583Z,82.39
2023-03-22T09:27:21.669Z,82.45
2023-03-22T09:28:21.650Z,82.24
2023-03-22T09:29:22.258Z,81.84
2023-03-22T09:30:21.544Z,81.94
2023-03-22T09:31:21.571Z,82.04
2023-03-22T09:32:21.580Z,81.84
2023-03-22T09:33:21.836Z,82.24
2023-03-22T09:34:21.512Z,81.94
2023-03-22T09:35:21.558Z,82.04
2023-03-22T09:36:21.480Z,81.63
2023-03-22T09:37:21.782Z,81.73
2023-03-22T09:38:21.733Z,81.02
2023-03-22T09:39:21.999Z,81.63
2023-03-22T09:40:21.538Z,80.82
2023-03-22T09:41:21.428Z,81.63
2023-03-22T09:42:21.475Z,81.23
2023-03-22T09:43:21.452Z,81.73
2023-03-22T09:44:21.636Z,81.63
2023-03-22T09:45:21.387Z,81.23
2023-03-22T09:46:22.392Z,82.39
2023-03-22T09:47:21.378Z,81.87
2023-03-22T09:48:21.427Z,81.02
2023-03-22T09:49:21.363Z,82.04
2023-03-22T09:50:21.365Z,82.04
2023-03-22T09:51:21.332Z,81.94
2023-03-22T09:52:21.402Z,81.98
2023-03-22T09:53:21.430Z,80.44
2023-03-22T09:54:21.594Z,81.05
2023-03-22T09:55:21.276Z,81.05
2023-03-22T09:56:21.313Z,81.84
2023-03-22T09:57:21.343Z,80.30
2023-03-22T09:58:21.334Z,79.39
2023-03-22T09:59:21.282Z,79.66
2023-03-22T10:00:21.513Z,80.23
2023-03-22T10:01:21.476Z,80.23
2023-03-22T10:02:21.479Z,78.12
2023-03-22T10:03:21.855Z,77.41
2023-03-22T10:04:21.250Z,78.64
2023-03-22T10:05:21.462Z,78.33
2023-03-22T10:06:21.254Z,78.02
2023-03-22T10:07:21.161Z,77.51
2023-03-22T10:08:21.279Z,78.60
2023-03-22T10:09:21.381Z,78.33
2023-03-22T10:10:22.067Z,78.09
2023-03-22T10:11:21.268Z,79.11
2023-03-22T10:12:21.252Z,77.68
2023-03-22T10:13:21.206Z,77.27
2023-03-22T10:14:21.135Z,76.66
2023-03-22T10:15:21.120Z,76.80
2023-03-22T10:16:21.174Z,77.41
2023-03-22T10:17:21.371Z,77.31
2023-03-22T10:18:21.148Z,77.07
2023-03-22T10:19:21.245Z,77.27
2023-03-22T10:20:21.054Z,77.24
2023-03-22T10:21:21.049Z,77.89
2023-03-22T10:22:21.055Z,76.66
2023-03-22T10:23:21.058Z,78.09
2023-03-22T10:24:21.872Z,78.16
2023-03-22T10:25:21.149Z,77.37
2023-03-22T10:26:20.994Z,76.83
2023-03-22T10:27:21.021Z,77.24
2023-03-22T10:28:21.003Z,77.64
2023-03-22T10:29:21.233Z,77.40
2023-03-22T10:30:21.047Z,77.71
2023-03-22T10:31:21.306Z,77.30
2023-03-22T10:32:20.929Z,76.69
2023-03-22T10:33:20.922Z,76.28
2023-03-22T10:34:21.017Z,75.88
2023-03-22T10:35:20.916Z,76.39
2023-03-22T10:36:21.049Z,74.96
2023-03-22T10:37:20.902Z,75.78
2023-03-22T10:38:20.918Z,77.71
2023-03-22T10:39:20.914Z,76.49
2023-03-22T10:40:20.851Z,75.57
2023-03-22T10:41:20.960Z,75.16
2023-03-22T10:42:20.845Z,76.18
2023-03-22T10:43:20.870Z,75.06
2023-03-22T10:44:20.900Z,76.90
2023-03-22T10:45:21.278Z,75.78
2023-03-22T10:46:20.843Z,74.96
2023-03-22T10:47:20.852Z,74.25
2023-03-22T10:48:20.915Z,73.23
2023-03-22T10:49:20.778Z,73.64
2023-03-22T10:50:20.742Z,73.43
2023-03-22T10:51:20.831Z,74.11
2023-03-22T10:52:20.799Z,75.13
2023-03-22T10:53:20.843Z,72.28
2023-03-22T10:54:20.734Z,74.72
2023-03-22T10:55:21.504Z,71.87
2023-03-22T10:56:20.705Z,72.48
2023-03-22T10:57:20.791Z,73.19
2023-03-22T10:58:20.776Z,72.99
2023-03-22T10:59:20.679Z,73.87
2023-03-22T11:00:21.020Z,73.06
2023-03-22T11:01:20.732Z,73.10
2023-03-22T11:02:20.727Z,73.10
2023-03-22T11:03:20.643Z,73.77
2023-03-22T11:04:20.644Z,72.14
2023-03-22T11:05:20.606Z,73.87
2023-03-22T11:06:20.629Z,71.23
2023-03-22T11:07:20.653Z,72.86
2023-03-22T11:08:20.642Z,71.12
2023-03-22T11:09:21.128Z,72.65
2023-03-22T11:10:20.585Z,71.02
2023-03-22T11:11:20.767Z,72.25
2023-03-22T11:12:20.578Z,72.41
2023-03-22T11:13:20.764Z,71.40
2023-03-22T11:14:20.691Z,71.30
2023-03-22T11:15:20.483Z,71.06
2023-03-22T11:16:20.538Z,70.96
2023-03-22T11:17:20.672Z,68.85
2023-03-22T11:18:20.694Z,69.90
2023-03-22T11:19:20.632Z,70.01
2023-03-22T11:20:21.366Z,70.72
2023-03-22T11:21:20.525Z,71.12
2023-03-22T11:22:20.445Z,70.72
2023-03-22T11:23:20.503Z,70.01
2023-03-22T11:24:20.409Z,69.49
2023-03-22T11:25:21.039Z,71.40
2023-03-22T11:26:20.535Z,69.87
2023-03-22T11:27:20.515Z,70.79
2023-03-22T11:28:20.662Z,69.57
2023-03-22T11:29:20.471Z,68.96
2023-03-22T11:30:20.444Z,71.91
2023-03-22T11:31:20.471Z,68.96
2023-03-22T11:32:20.453Z,69.57
2023-03-22T11:33:20.415Z,68.96
2023-03-22T11:34:20.362Z,68.85
2023-03-22T11:35:20.460Z,68.04
2023-03-22T11:36:20.338Z,68.82
2023-03-22T11:37:20.345Z,70.04
2023-03-22T11:38:20.339Z,70.35
2023-03-22T11:39:20.583Z,68.35
2023-03-22T11:40:20.317Z,68.44
2023-03-22T11:41:20.263Z,67.63
2023-03-22T11:42:20.246Z,68.24
2023-03-22T11:43:20.306Z,67.83
2023-03-22T11:44:20.244Z,69.94
2023-03-22T11:45:20.353Z,68.32
2023-03-22T11:46:20.285Z,68.32
2023-03-22T11:51:24.540Z,67.06
2023-03-22T11:52:24.668Z,67.16
2023-03-22T11:53:24.478Z,67.27
2023-03-22T11:55:53.050Z,70.31
2023-03-22T11:56:52.650Z,69.60
2023-03-22T11:57:52.614Z,68.28
2023-03-22T11:58:52.346Z,67.57
2023-03-22T11:59:52.179Z,69.81
2023-03-22T12:00:52.350Z,70.11
2023-03-22T12:01:52.414Z,70.11
2023-03-22T12:02:52.384Z,67.67
2023-03-22T12:06:37.217Z,66.96
2023-03-22T12:07:37.288Z,64.55
2023-03-22T12:08:38.726Z,68.32
2023-03-22T12:09:38.978Z,65.57
2023-03-22T12:10:38.310Z,67.57
2023-03-22T12:11:38.248Z,66.25
2023-03-22T12:12:38.389Z,65.67
2023-03-22T12:13:38.418Z,66.79
2023-03-22T12:14:39.141Z,66.38
2023-03-22T12:15:38.439Z,66.58
2023-03-22T12:16:38.305Z,67.47
2023-03-22T12:17:38.332Z,66.18
2023-03-22T12:18:38.242Z,65.36
2023-03-22T12:19:38.330Z,64.96
2023-03-22T12:20:38.510Z,66.28
2023-03-22T12:21:38.298Z,65.84
2023-03-22T12:22:38.186Z,64.55
2023-03-22T12:23:38.260Z,66.25
2023-03-22T12:24:38.194Z,66.89
2023-03-22T12:25:38.291Z,67.16
2023-03-22T12:26:38.320Z,66.15
2023-03-22T12:27:38.192Z,65.84
2023-03-22T12:28:38.241Z,66.25
2023-03-22T12:29:38.227Z,66.38
2023-03-22T12:30:38.172Z,66.15
2023-03-22T12:31:38.213Z,65.94
2023-03-22T12:32:38.160Z,65.74
2023-03-22T12:33:38.154Z,64.83
2023-03-22T12:34:38.055Z,65.30
2023-03-22T12:35:38.293Z,65.91
2023-03-22T12:36:38.977Z,65.27
2023-03-22T12:37:38.159Z,66.19
2023-03-22T12:38:38.072Z,64.15
2023-03-22T12:39:38.080Z,64.13
2023-03-22T12:40:38.260Z,65.04
2023-03-22T12:41:38.019Z,64.81
2023-03-22T12:42:47.610Z,64.03
2023-03-22T12:43:39.119Z,64.73
2023-03-22T12:44:37.982Z,65.65
2023-03-22T12:45:38.295Z,65.42
2023-03-22T12:46:38.075Z,64.53
2023-03-22T12:47:38.103Z,66.05
2023-03-22T12:48:39.529Z,67.17
2023-03-22T12:49:38.137Z,64.97
2023-03-22T12:50:38.776Z,63.98
2023-03-22T12:51:37.854Z,65.91
2023-03-22T12:52:45.308Z,66.42
2023-03-22T12:53:38.890Z,65.61
2023-03-22T12:54:37.895Z,65.81
2023-03-22T12:55:37.949Z,65.51
2023-03-22T12:56:38.897Z,65.94
2023-03-22T12:57:38.330Z,67.06
2023-03-22T12:58:37.885Z,66.55
2023-03-22T12:59:38.073Z,66.32
2023-03-22T13:00:37.945Z,65.54
2023-03-22T13:01:38.110Z,65.81
2023-03-22T13:02:37.934Z,66.32
2023-03-22T13:03:38.297Z,65.81
2023-03-22T13:04:39.940Z,67.10
2023-03-22T13:05:37.930Z,67.50
2023-03-22T13:06:37.761Z,66.08
2023-03-22T13:07:37.835Z,65.58
2023-03-22T13:08:37.835Z,65.99
2023-03-22T13:09:37.875Z,65.27
2023-03-22T13:10:37.938Z,65.88
2023-03-22T13:11:37.806Z,65.07
2023-03-22T13:12:37.758Z,66.32
2023-03-22T13:13:37.740Z,64.09
2023-03-22T13:14:37.637Z,66.49
2023-03-22T13:15:42.188Z,65.58
2023-03-22T13:16:38.726Z,66.29
2023-03-22T13:17:37.873Z,66.60
2023-03-22T13:18:37.721Z,66.49
2023-03-22T13:19:37.669Z,67.20
2023-03-22T13:20:37.694Z,66.90
2023-03-22T13:21:38.359Z,67.50
2023-03-22T13:22:37.568Z,65.99